createdAt,value
2019-06-04T00:00:07.884Z,92.61
2019-06-04T00:01:24.436Z,92.13
2019-06-04T00:02:07.875Z,91.84
2019-06-04T00:03:07.872Z,91.65
2019-06-04T00:04:07.880Z,91.60
2019-06-04T00:05:07.876Z,91.89
2019-06-04T00:06:07.879Z,91.51
2019-06-04T00:07:07.879Z,90.83
2019-06-04T00:08:07.883Z,90.93
2019-06-04T00:09:07.882Z,91.22
2019-06-04T00:10:07.893Z,91.13
2019-06-04T00:11:07.886Z,90.93
2019-06-04T00:12:07.884Z,90.73
2019-06-04T00:13:07.890Z,90.55
2019-06-04T00:14:07.891Z,90.45
2019-06-04T00:15:07.898Z,90.45
2019-06-04T00:16:07.900Z,90.55
2019-06-04T00:17:07.908Z,90.73
2019-06-04T00:18:07.896Z,90.55
2019-06-04T00:19:07.897Z,90.55
2019-06-04T00:20:07.899Z,90.26
2019-06-04T00:21:07.904Z,90.35
2019-06-04T00:22:07.918Z,90.16
2019-06-04T00:23:07.905Z,90.26
2019-06-04T00:24:07.914Z,90.55
2019-06-04T00:25:07.910Z,90.45
2019-06-04T00:26:09.647Z,90.45
2019-06-04T00:27:07.916Z,90.26
2019-06-04T00:28:07.913Z,90.55
2019-06-04T00:29:08.371Z,90.35
2019-06-04T00:30:08.481Z,90.35
2019-06-04T00:31:08.526Z,90.35
2019-06-04T00:32:08.242Z,89.49
2019-06-04T00:33:08.323Z,90.41
2019-06-04T00:34:09.233Z,90.41
2019-06-04T00:35:08.834Z,89.83
2019-06-04T00:36:09.027Z,90.02
2019-06-04T00:37:08.449Z,90.21
2019-06-04T00:38:08.961Z,90.41
2019-06-04T00:39:08.875Z,90.02
2019-06-04T00:40:08.795Z,89.83
2019-06-04T00:41:09.111Z,89.25
2019-06-04T00:42:08.923Z,89.44
2019-06-04T00:43:09.559Z,89.25
2019-06-04T00:44:09.151Z,89.44
2019-06-04T00:45:08.944Z,89.15
2019-06-04T00:46:09.044Z,89.25
2019-06-04T00:47:09.357Z,89.35
2019-06-04T00:48:09.348Z,89.92
2019-06-04T00:49:09.106Z,90.02
2019-06-04T00:50:09.208Z,89.92
2019-06-04T00:51:09.806Z,89.92
2019-06-04T00:52:09.106Z,89.73
2019-06-04T00:53:09.380Z,89.35
2019-06-04T00:54:09.143Z,89.25
2019-06-04T00:55:07.946Z,89.44
2019-06-04T00:56:08.602Z,89.15
2019-06-04T00:57:08.402Z,88.77
2019-06-04T00:58:08.713Z,89.25
2019-06-04T00:59:07.963Z,88.87
2019-06-04T01:00:08.939Z,89.44
2019-06-04T01:01:08.057Z,89.06
2019-06-04T01:02:09.022Z,89.25
2019-06-04T01:03:08.147Z,89.64
2019-06-04T01:04:14.277Z,89.06
2019-06-04T01:05:08.262Z,88.87
2019-06-04T01:06:08.202Z,88.63
2019-06-04T01:07:07.962Z,88.53
2019-06-04T01:08:20.730Z,87.76
2019-06-04T01:09:07.964Z,88.24
2019-06-04T01:10:07.963Z,87.86
2019-06-04T01:11:08.148Z,87.57
2019-06-04T01:12:08.147Z,88.06
2019-06-04T01:13:14.747Z,87.67
2019-06-04T01:14:08.554Z,88.34
2019-06-04T01:15:24.669Z,88.24
2019-06-04T01:16:08.526Z,88.06
2019-06-04T01:17:08.639Z,87.29
2019-06-04T01:18:08.793Z,87.76
2019-06-04T01:19:08.946Z,87.57
2019-06-04T01:20:08.860Z,87.76
2019-06-04T01:21:09.206Z,87.67
2019-06-04T01:22:09.098Z,87.86
2019-06-04T01:23:09.476Z,87.86
2019-06-04T01:24:09.351Z,87.57
2019-06-04T01:25:07.978Z,87.76
2019-06-04T01:26:07.988Z,86.80
2019-06-04T01:27:07.979Z,86.90
2019-06-04T01:28:09.936Z,87.09
2019-06-04T01:29:08.141Z,86.80
2019-06-04T01:30:08.069Z,86.99
2019-06-04T01:31:08.512Z,86.90
2019-06-04T01:32:20.287Z,87.24
2019-06-04T01:33:08.395Z,86.99
2019-06-04T01:34:08.391Z,86.95
2019-06-04T01:35:08.385Z,86.90
2019-06-04T01:36:08.706Z,86.52
2019-06-04T01:37:08.558Z,86.42
2019-06-04T01:38:08.860Z,85.89
2019-06-04T01:39:08.908Z,85.89
2019-06-04T01:40:09.321Z,85.99
2019-06-04T01:41:09.285Z,85.22
2019-06-04T01:42:08.969Z,85.51
2019-06-04T01:43:09.274Z,85.32
2019-06-04T01:44:09.420Z,85.32
2019-06-04T01:45:07.996Z,85.22
2019-06-04T01:46:08.002Z,85.41
2019-06-04T01:47:07.998Z,85.22
2019-06-04T01:48:08.119Z,84.55
2019-06-04T01:49:08.979Z,84.74
2019-06-04T01:50:08.279Z,84.64
2019-06-04T01:51:08.457Z,84.45
2019-06-04T01:52:08.214Z,84.26
2019-06-04T01:53:08.574Z,84.64
2019-06-04T01:54:08.397Z,84.26
2019-06-04T01:55:08.662Z,84.45
2019-06-04T01:56:08.773Z,84.17
2019-06-04T01:57:08.703Z,85.22
2019-06-04T01:58:10.221Z,85.51
2019-06-04T01:59:09.013Z,85.22
2019-06-04T02:00:16.813Z,85.13
2019-06-04T02:01:09.256Z,85.99
2019-06-04T02:02:09.299Z,85.80
2019-06-04T02:03:09.370Z,86.57
2019-06-04T02:04:08.004Z,86.47
2019-06-04T02:05:08.397Z,86.18
2019-06-04T02:06:08.008Z,86.18
2019-06-04T02:07:08.006Z,85.80
2019-06-04T02:08:08.853Z,85.32
2019-06-04T02:09:08.270Z,85.13
2019-06-04T02:10:09.649Z,85.61
2019-06-04T02:11:08.429Z,85.37
2019-06-04T02:12:13.202Z,85.03
2019-06-04T02:13:08.639Z,84.74
2019-06-04T02:14:08.803Z,84.89
2019-06-04T02:15:09.240Z,84.31
2019-06-04T02:16:15.974Z,85.13
2019-06-04T02:17:08.012Z,85.22
2019-06-04T02:18:08.191Z,84.80
2019-06-04T02:19:08.013Z,84.31
2019-06-04T02:20:08.128Z,84.41
2019-06-04T02:21:08.162Z,84.12
2019-06-04T02:22:08.042Z,84.60
2019-06-04T02:23:08.464Z,84.60
2019-06-04T02:24:08.016Z,84.89
2019-06-04T02:25:08.191Z,85.03
2019-06-04T02:26:08.464Z,84.70
2019-06-04T02:27:08.249Z,85.18
2019-06-04T02:28:08.522Z,84.22
2019-06-04T02:29:08.276Z,84.41
2019-06-04T02:30:10.282Z,84.22
2019-06-04T02:31:08.475Z,84.41
2019-06-04T02:32:08.639Z,84.41
2019-06-04T02:33:13.746Z,84.31
2019-06-04T02:34:08.720Z,84.41
2019-06-04T02:35:08.655Z,83.54
2019-06-04T02:36:08.892Z,83.54
2019-06-04T02:37:08.684Z,83.64
2019-06-04T02:38:08.842Z,83.26
2019-06-04T02:39:08.093Z,83.26
2019-06-04T02:40:08.894Z,83.45
2019-06-04T02:41:08.227Z,82.40
2019-06-04T02:42:09.054Z,82.30
2019-06-04T02:43:08.299Z,82.10
2019-06-04T02:44:09.267Z,82.30
2019-06-04T02:45:08.267Z,82.68
2019-06-04T02:46:08.853Z,82.59
2019-06-04T02:47:08.474Z,82.20
2019-06-04T02:48:08.031Z,82.40
2019-06-04T02:49:08.888Z,81.97
2019-06-04T02:50:08.157Z,82.20
2019-06-04T02:51:08.947Z,82.59
2019-06-04T02:52:09.005Z,82.78
2019-06-04T02:53:09.244Z,82.59
2019-06-04T02:54:09.423Z,82.68
2019-06-04T02:55:08.023Z,82.68
2019-06-04T02:56:08.143Z,81.87
2019-06-04T02:57:08.024Z,82.16
2019-06-04T02:58:08.064Z,81.68
2019-06-04T02:59:08.154Z,82.30
2019-06-04T03:00:08.292Z,81.87
2019-06-04T03:01:09.030Z,81.97
2019-06-04T03:02:08.505Z,80.91
2019-06-04T03:03:22.382Z,80.91
2019-06-04T03:04:08.550Z,81.78
2019-06-04T03:05:08.595Z,81.87
2019-06-04T03:06:09.030Z,81.68
2019-06-04T03:07:09.108Z,81.87
2019-06-04T03:08:08.946Z,81.87
2019-06-04T03:09:09.197Z,81.59
2019-06-04T03:10:09.022Z,81.78
2019-06-04T03:11:09.410Z,82.07
2019-06-04T03:12:09.207Z,81.78
2019-06-04T03:13:09.399Z,82.16
2019-06-04T03:14:09.473Z,81.59
2019-06-04T03:15:08.028Z,81.68
2019-06-04T03:16:08.023Z,80.73
2019-06-04T03:17:08.028Z,80.82
2019-06-04T03:18:35.778Z,80.73
2019-06-04T03:19:08.026Z,80.34
2019-06-04T03:20:08.025Z,80.53
2019-06-04T03:21:08.029Z,81.10
2019-06-04T03:22:08.026Z,80.73
2019-06-04T03:23:08.024Z,81.01
2019-06-04T03:24:08.025Z,81.30
2019-06-04T03:25:08.039Z,81.49
2019-06-04T03:26:08.023Z,81.49
2019-06-04T03:27:08.024Z,82.64
2019-06-04T03:28:08.026Z,81.97
2019-06-04T03:29:08.024Z,82.16
2019-06-04T03:30:08.028Z,82.64
2019-06-04T03:31:08.256Z,82.64
2019-06-04T03:32:08.034Z,82.35
2019-06-04T03:33:08.028Z,82.54
2019-06-04T03:34:08.025Z,82.84
2019-06-04T03:35:08.023Z,82.26
2019-06-04T03:36:08.026Z,82.35
2019-06-04T03:37:08.023Z,82.07
2019-06-04T03:38:08.027Z,82.16
2019-06-04T03:39:08.028Z,81.68
2019-06-04T03:40:08.023Z,81.87
2019-06-04T03:41:08.022Z,81.68
2019-06-04T03:42:08.023Z,81.78
2019-06-04T03:43:08.029Z,81.97
2019-06-04T03:44:08.024Z,82.35
2019-06-04T03:45:08.038Z,82.54
2019-06-04T03:46:08.025Z,83.12
2019-06-04T03:47:08.029Z,83.22
2019-06-04T03:48:08.027Z,83.31
2019-06-04T03:49:08.025Z,83.12
2019-06-04T03:50:08.033Z,83.70
2019-06-04T03:51:08.023Z,83.03
2019-06-04T03:52:08.024Z,83.31
2019-06-04T03:53:08.027Z,82.84
2019-06-04T03:54:08.029Z,83.31
2019-06-04T03:55:08.023Z,84.18
2019-06-04T03:56:08.025Z,84.75
2019-06-04T03:57:08.023Z,85.14
2019-06-04T03:58:08.025Z,84.66
2019-06-04T03:59:08.022Z,85.14
2019-06-04T04:00:08.027Z,85.04
2019-06-04T04:01:08.026Z,85.14
2019-06-04T04:02:08.637Z,85.52
2019-06-04T04:03:08.027Z,85.71
2019-06-04T04:04:08.589Z,85.52
2019-06-04T04:05:08.091Z,85.14
2019-06-04T04:06:08.025Z,85.37
2019-06-04T04:07:08.023Z,83.45
2019-06-04T04:08:08.095Z,84.31
2019-06-04T04:09:08.051Z,83.84
2019-06-04T04:10:08.023Z,84.60
2019-06-04T04:11:08.019Z,84.60
2019-06-04T04:12:08.022Z,84.41
2019-06-04T04:13:08.027Z,84.12
2019-06-04T04:14:08.023Z,83.84
2019-06-04T04:15:08.021Z,84.03
2019-06-04T04:16:08.023Z,83.74
2019-06-04T04:17:08.027Z,84.31
2019-06-04T04:18:08.024Z,84.60
2019-06-04T04:19:08.030Z,86.24
2019-06-04T04:20:08.026Z,86.81
2019-06-04T04:21:08.023Z,86.62
2019-06-04T04:22:08.024Z,87.19
2019-06-04T04:23:08.030Z,87.77
2019-06-04T04:24:08.025Z,87.77
2019-06-04T04:25:08.025Z,88.10
2019-06-04T04:26:08.026Z,88.39
2019-06-04T04:27:08.023Z,87.72
2019-06-04T04:28:08.027Z,87.34
2019-06-04T04:29:08.023Z,87.15
2019-06-04T04:30:08.031Z,87.43
2019-06-04T04:31:08.024Z,86.85
2019-06-04T04:32:08.029Z,87.15
2019-06-04T04:33:08.021Z,87.15
2019-06-04T04:34:24.594Z,87.24
2019-06-04T04:35:08.027Z,88.20
2019-06-04T04:36:08.030Z,87.82
2019-06-04T04:37:08.060Z,87.82
2019-06-04T04:38:08.028Z,88.20
2019-06-04T04:39:08.028Z,88.87
2019-06-04T04:40:08.029Z,89.59
2019-06-04T04:41:08.031Z,89.88
2019-06-04T04:42:08.040Z,90.07
2019-06-04T04:43:08.030Z,90.36
2019-06-04T04:44:08.031Z,89.30
2019-06-04T04:45:08.035Z,89.21
2019-06-04T04:46:08.042Z,89.30
2019-06-04T04:47:08.032Z,89.59
2019-06-04T04:48:08.033Z,90.17
2019-06-04T04:49:08.033Z,89.98
2019-06-04T04:50:08.098Z,89.92
2019-06-04T04:51:08.035Z,90.79
2019-06-04T04:52:08.046Z,90.41
2019-06-04T04:53:11.715Z,90.79
2019-06-04T04:54:08.038Z,90.79
2019-06-04T04:55:08.038Z,90.59
2019-06-04T04:56:08.040Z,91.66
2019-06-04T04:57:08.043Z,91.94
2019-06-04T04:58:08.040Z,91.66
2019-06-04T04:59:08.043Z,92.71
2019-06-04T05:00:08.042Z,92.33
2019-06-04T05:01:08.043Z,92.33
2019-06-04T05:02:08.044Z,93.48
2019-06-04T05:03:08.744Z,93.19
2019-06-04T05:04:08.048Z,93.19
2019-06-04T05:05:08.045Z,93.48
2019-06-04T05:06:08.046Z,94.01
2019-06-04T05:07:08.046Z,94.97
2019-06-04T05:08:08.050Z,96.12
2019-06-04T05:09:08.052Z,97.81
2019-06-04T05:10:08.062Z,99.11
2019-06-04T05:11:08.052Z,99.99
2019-06-04T05:12:08.054Z,99.99
2019-06-04T05:13:08.103Z,99.99
2019-06-04T05:14:08.059Z,99.99
2019-06-04T05:15:08.081Z,99.99
2019-06-04T05:16:08.076Z,99.99
2019-06-04T05:17:08.062Z,99.99
2019-06-04T05:18:08.061Z,99.99
2019-06-04T05:19:08.066Z,99.99
2019-06-04T05:20:08.066Z,99.99
2019-06-04T05:21:08.067Z,99.99
2019-06-04T05:22:08.072Z,99.99
2019-06-04T05:23:08.072Z,99.99
2019-06-04T05:24:08.091Z,99.99
2019-06-04T05:25:08.074Z,99.99
2019-06-04T05:26:08.078Z,99.99
2019-06-04T05:27:08.080Z,99.99
2019-06-04T05:28:08.085Z,99.99
2019-06-04T05:29:08.141Z,99.99
2019-06-04T05:30:08.117Z,99.99
2019-06-04T05:31:08.089Z,99.99
2019-06-04T05:32:08.092Z,99.99
2019-06-04T05:33:08.096Z,99.21
2019-06-04T05:34:08.099Z,97.96
2019-06-04T05:35:08.108Z,97.38
2019-06-04T05:36:08.105Z,98.10
2019-06-04T05:37:08.103Z,99.31
2019-06-04T05:38:08.110Z,99.99
2019-06-04T05:39:08.111Z,99.99
2019-06-04T05:40:08.122Z,99.99
2019-06-04T05:41:08.120Z,99.99
2019-06-04T05:42:08.123Z,99.99
2019-06-04T05:43:08.123Z,99.99
2019-06-04T05:44:08.126Z,99.99
2019-06-04T05:45:08.333Z,99.99
2019-06-04T05:46:08.132Z,99.99
2019-06-04T05:47:08.135Z,99.99
2019-06-04T05:48:08.138Z,99.99
2019-06-04T05:49:08.141Z,99.99
2019-06-04T05:50:08.143Z,99.99
2019-06-04T05:51:08.149Z,99.99
2019-06-04T05:52:08.147Z,99.99
2019-06-04T05:53:08.150Z,99.99
2019-06-04T05:54:08.155Z,99.99
2019-06-04T05:55:08.157Z,99.99
2019-06-04T05:56:08.163Z,99.99
2019-06-04T05:57:08.161Z,98.78
2019-06-04T05:58:08.166Z,97.28
2019-06-04T05:59:08.170Z,95.01
2019-06-04T06:00:08.169Z,94.33
2019-06-04T06:01:08.176Z,93.51
2019-06-04T06:02:08.183Z,94.67
2019-06-04T06:03:08.194Z,95.93
2019-06-04T06:04:08.196Z,97.04
2019-06-04T06:05:23.262Z,97.42
2019-06-04T06:06:08.189Z,98.30
2019-06-04T06:07:09.362Z,99.07
2019-06-04T06:08:09.342Z,98.88
2019-06-04T06:09:08.200Z,99.16
2019-06-04T06:10:08.209Z,98.97
2019-06-04T06:11:08.229Z,97.18
2019-06-04T06:12:08.214Z,96.80
2019-06-04T06:13:08.210Z,96.94
2019-06-04T06:14:08.238Z,97.52
2019-06-04T06:15:09.825Z,97.62
2019-06-04T06:16:08.223Z,97.72
2019-06-04T06:17:08.228Z,98.88
2019-06-04T06:18:08.230Z,99.36
2019-06-04T06:19:08.247Z,99.02
2019-06-04T06:20:08.236Z,99.11
2019-06-04T06:21:08.957Z,99.21
2019-06-04T06:22:08.243Z,99.41
2019-06-04T06:23:11.325Z,99.31
2019-06-04T06:24:08.252Z,99.60
2019-06-04T06:25:08.254Z,99.31
2019-06-04T06:26:08.265Z,99.21
2019-06-04T06:27:08.262Z,99.21
2019-06-04T06:28:08.301Z,99.02
2019-06-04T06:29:08.265Z,98.54
2019-06-04T06:30:08.273Z,98.68
2019-06-04T06:31:08.271Z,99.21
2019-06-04T06:32:08.281Z,99.21
2019-06-04T06:33:08.281Z,98.83
2019-06-04T06:34:08.279Z,97.38
2019-06-04T06:35:08.286Z,95.93
2019-06-04T06:36:08.651Z,95.93
2019-06-04T06:37:08.299Z,96.80
2019-06-04T06:38:08.301Z,95.73
2019-06-04T06:39:08.298Z,96.80
2019-06-04T06:40:08.302Z,96.99
2019-06-04T06:41:08.306Z,96.70
2019-06-04T06:42:08.311Z,97.19
2019-06-04T06:43:08.313Z,99.11
2019-06-04T06:44:08.318Z,99.69
2019-06-04T06:45:08.327Z,99.99
2019-06-04T06:46:08.324Z,99.99
2019-06-04T06:47:08.326Z,99.21
2019-06-04T06:48:08.334Z,99.41
2019-06-04T06:49:08.334Z,99.02
2019-06-04T06:50:08.334Z,99.31
2019-06-04T06:51:08.341Z,99.11
2019-06-04T06:52:08.526Z,99.21
2019-06-04T06:53:08.348Z,99.21
2019-06-04T06:54:08.351Z,99.41
2019-06-04T06:55:08.354Z,99.21
2019-06-04T06:56:08.356Z,99.31
2019-06-04T06:57:08.361Z,99.31
2019-06-04T06:58:08.367Z,99.89
2019-06-04T06:59:08.363Z,99.99
2019-06-04T07:00:08.373Z,99.99
2019-06-04T07:01:08.372Z,99.99
2019-06-04T07:02:23.905Z,99.99
2019-06-04T07:03:08.381Z,99.99
2019-06-04T07:04:08.391Z,99.99
2019-06-04T07:05:08.383Z,99.99
2019-06-04T07:06:08.396Z,99.89
2019-06-04T07:07:12.385Z,99.99
2019-06-04T07:08:08.395Z,99.99
2019-06-04T07:09:08.400Z,99.99
2019-06-04T07:10:08.407Z,99.99
2019-06-04T07:11:10.405Z,99.99
2019-06-04T07:12:08.414Z,99.99
2019-06-04T07:13:08.411Z,99.99
2019-06-04T07:14:08.417Z,99.99
2019-06-04T07:15:08.428Z,99.99
2019-06-04T07:16:08.441Z,99.99
2019-06-04T07:17:08.428Z,99.99
2019-06-04T07:18:08.429Z,99.99
2019-06-04T07:19:08.430Z,99.99
2019-06-04T07:20:09.896Z,99.99
2019-06-04T07:21:08.437Z,99.99
2019-06-04T07:22:08.442Z,99.99
2019-06-04T07:23:08.447Z,99.99
2019-06-04T07:24:08.448Z,99.99
2019-06-04T07:25:09.226Z,99.99
2019-06-04T07:26:08.457Z,99.99
2019-06-04T07:27:08.480Z,99.99
2019-06-04T07:28:08.470Z,99.99
2019-06-04T07:29:08.464Z,99.99
2019-06-04T07:30:08.467Z,99.99
2019-06-04T07:31:08.476Z,99.99
2019-06-04T07:32:08.472Z,99.99
2019-06-04T07:33:08.517Z,99.99
2019-06-04T07:34:08.481Z,99.89
2019-06-04T07:35:08.506Z,99.99
2019-06-04T07:36:22.729Z,99.99
2019-06-04T07:37:08.492Z,99.99
2019-06-04T07:38:09.451Z,99.99
2019-06-04T07:39:08.495Z,99.99
2019-06-04T07:40:08.769Z,99.99
2019-06-04T07:41:08.505Z,99.99
2019-06-04T07:42:08.512Z,99.99
2019-06-04T07:43:08.520Z,99.99
2019-06-04T07:44:08.509Z,99.99
2019-06-04T07:45:08.521Z,99.99
2019-06-04T07:46:08.515Z,99.99
2019-06-04T07:47:08.521Z,99.99
2019-06-04T07:48:08.534Z,99.99
2019-06-04T07:49:08.526Z,99.99
2019-06-04T07:50:08.530Z,99.99
2019-06-04T07:51:08.571Z,99.99
2019-06-04T07:52:09.861Z,99.99
2019-06-04T07:53:08.542Z,99.99
2019-06-04T07:54:08.719Z,99.99
2019-06-04T07:55:08.544Z,99.99
2019-06-04T07:56:08.548Z,99.99
2019-06-04T07:57:08.550Z,99.99
2019-06-04T07:58:08.554Z,99.99
2019-06-04T07:59:08.555Z,99.74
2019-06-04T08:00:08.562Z,99.74
2019-06-04T08:01:08.561Z,99.31
2019-06-04T08:02:08.838Z,99.46
2019-06-04T08:03:08.573Z,99.02
2019-06-04T08:04:08.580Z,98.83
2019-06-04T08:05:08.586Z,98.25
2019-06-04T08:06:08.579Z,98.15
2019-06-04T08:07:09.920Z,98.15
2019-06-04T08:08:08.585Z,98.15
2019-06-04T08:09:08.591Z,97.67
2019-06-04T08:10:08.598Z,97.77
2019-06-04T08:11:08.596Z,97.18
2019-06-04T08:12:08.596Z,97.09
2019-06-04T08:13:08.602Z,97.38
2019-06-04T08:14:08.608Z,97.57
2019-06-04T08:15:08.610Z,97.18
2019-06-04T08:16:08.614Z,97.09
2019-06-04T08:17:08.614Z,96.99
2019-06-04T08:18:08.624Z,96.02
2019-06-04T08:19:08.621Z,96.02
2019-06-04T08:20:08.628Z,96.02
2019-06-04T08:21:08.630Z,95.73
2019-06-04T08:22:08.633Z,95.54
2019-06-04T08:23:08.632Z,95.15
2019-06-04T08:24:08.640Z,95.49
2019-06-04T08:25:08.643Z,94.71
2019-06-04T08:26:08.649Z,94.23
2019-06-04T08:27:08.642Z,93.94
2019-06-04T08:28:08.652Z,93.46
2019-06-04T08:29:08.662Z,93.17
2019-06-04T08:30:08.669Z,92.00
2019-06-04T08:31:08.661Z,90.89
2019-06-04T08:32:08.666Z,88.51
2019-06-04T08:33:08.670Z,83.81
2019-06-04T08:34:08.683Z,78.23
2019-06-04T08:35:08.677Z,73.00
2019-06-04T08:36:08.693Z,67.93
2019-06-04T08:37:08.689Z,62.93
2019-06-04T08:38:08.692Z,59.78
2019-06-04T08:39:08.700Z,56.70
2019-06-04T08:40:08.698Z,54.60
2019-06-04T08:41:08.708Z,52.80
2019-06-04T08:42:08.711Z,51.17
2019-06-04T08:43:08.714Z,49.46
2019-06-04T08:44:08.724Z,47.85
2019-06-04T08:45:09.346Z,47.45
2019-06-04T08:46:08.740Z,45.83
2019-06-04T08:47:08.836Z,45.07
2019-06-04T08:48:08.740Z,43.55
2019-06-04T08:49:08.755Z,42.49
2019-06-04T08:50:08.753Z,41.82
2019-06-04T08:51:08.760Z,41.14
2019-06-04T08:52:08.767Z,40.56
2019-06-04T08:53:11.088Z,39.98
2019-06-04T08:54:08.780Z,38.92
2019-06-04T08:55:08.788Z,38.84
2019-06-04T08:56:08.789Z,38.44
2019-06-04T08:57:09.004Z,37.67
2019-06-04T08:58:08.808Z,37.28
2019-06-04T08:59:08.812Z,37.10
2019-06-04T09:00:08.817Z,37.10
2019-06-04T09:01:08.830Z,36.33
2019-06-04T09:02:08.834Z,36.23
2019-06-04T09:03:08.844Z,35.74
2019-06-04T09:04:08.851Z,35.46
2019-06-04T09:05:08.860Z,35.07
2019-06-04T09:06:08.868Z,34.97
2019-06-04T09:07:25.219Z,35.08
2019-06-04T09:08:08.886Z,34.71
2019-06-04T09:09:08.893Z,33.94
2019-06-04T09:10:08.903Z,33.75
2019-06-04T09:11:08.908Z,33.28
2019-06-04T09:12:08.920Z,31.99
2019-06-04T09:13:08.968Z,31.99
2019-06-04T09:14:08.949Z,31.91
2019-06-04T09:15:08.943Z,31.91
2019-06-04T09:16:08.952Z,31.41
2019-06-04T09:17:08.975Z,31.33
2019-06-04T09:18:08.970Z,29.66
2019-06-04T09:19:08.976Z,29.88
2019-06-04T09:20:08.985Z,29.79
2019-06-04T09:21:09.001Z,29.69
2019-06-04T09:22:09.002Z,29.41
2019-06-04T09:23:09.049Z,28.83
2019-06-04T09:24:09.024Z,28.23
2019-06-04T09:25:09.033Z,28.45
2019-06-04T09:26:09.042Z,27.87
2019-06-04T09:27:09.047Z,27.57
2019-06-04T09:28:09.065Z,27.88
2019-06-04T09:29:09.076Z,27.78
2019-06-04T09:30:09.108Z,27.39
2019-06-04T09:31:09.086Z,27.39
2019-06-04T09:32:09.104Z,27.48
2019-06-04T09:33:09.113Z,27.58
2019-06-04T09:34:09.138Z,27.19
2019-06-04T09:35:09.152Z,27.19
2019-06-04T09:36:09.142Z,26.79
2019-06-04T09:37:09.275Z,26.79
2019-06-04T09:38:10.770Z,26.59
2019-06-04T09:39:09.170Z,26.89
2019-06-04T09:40:09.182Z,27.00
2019-06-04T09:41:09.192Z,26.50
2019-06-04T09:42:09.199Z,26.02
2019-06-04T09:43:09.208Z,25.62
2019-06-04T09:44:09.222Z,25.44
2019-06-04T09:45:09.229Z,25.72
2019-06-04T09:46:09.246Z,26.10
2019-06-04T09:47:09.273Z,25.71
2019-06-04T09:48:09.273Z,26.21
2019-06-04T09:49:09.273Z,26.01
2019-06-04T09:50:09.284Z,26.01
2019-06-04T09:51:09.313Z,26.01
2019-06-04T09:52:09.306Z,25.61
2019-06-04T09:53:09.315Z,25.42
2019-06-04T09:54:09.418Z,26.01
2019-06-04T09:55:09.371Z,26.01
2019-06-04T09:56:09.348Z,25.32
2019-06-04T09:57:09.486Z,24.64
2019-06-04T09:58:29.285Z,24.34
2019-06-04T09:59:09.386Z,24.44
2019-06-04T10:00:09.392Z,24.34
2019-06-04T10:01:09.416Z,24.34
2019-06-04T10:02:09.421Z,24.75
2019-06-04T10:03:09.423Z,24.46
2019-06-04T10:04:09.444Z,24.96
2019-06-04T10:05:09.451Z,24.27
2019-06-04T10:06:09.458Z,23.97
2019-06-04T10:07:09.552Z,24.05
2019-06-04T10:08:12.169Z,24.16
2019-06-04T10:09:09.502Z,24.16
2019-06-04T10:10:09.520Z,24.44
2019-06-04T10:11:09.526Z,24.55
2019-06-04T10:12:09.622Z,23.97
2019-06-04T10:13:09.538Z,23.38
2019-06-04T10:14:09.565Z,23.00
2019-06-04T10:15:09.564Z,23.10
2019-06-04T10:16:09.626Z,22.91
2019-06-04T10:17:09.586Z,22.81
2019-06-04T10:18:09.599Z,22.21
2019-06-04T10:19:09.612Z,22.71
2019-06-04T10:20:09.652Z,22.41
2019-06-04T10:21:09.637Z,22.40
2019-06-04T10:22:09.657Z,22.01
2019-06-04T10:23:10.235Z,21.70
2019-06-04T10:24:11.441Z,22.00
2019-06-04T10:25:09.687Z,22.30
2019-06-04T10:26:23.794Z,22.40
2019-06-04T10:27:09.863Z,22.40
2019-06-04T10:28:09.727Z,21.91
2019-06-04T10:29:10.013Z,21.92
2019-06-04T10:30:09.748Z,21.52
2019-06-04T10:31:09.773Z,21.71
2019-06-04T10:32:09.900Z,22.49
2019-06-04T10:33:14.081Z,23.75
2019-06-04T10:34:11.533Z,24.32
2019-06-04T10:35:09.829Z,25.20
2019-06-04T10:36:09.832Z,25.97
2019-06-04T10:37:20.305Z,26.55
2019-06-04T10:38:26.277Z,26.07
2019-06-04T10:39:10.064Z,25.57
2019-06-04T10:40:10.514Z,24.60
2019-06-04T10:41:09.905Z,24.52
2019-06-04T10:43:24.188Z,23.16
2019-06-04T10:44:24.663Z,23.26
2019-06-04T10:46:20.783Z,23.07
2019-06-04T10:47:20.011Z,22.78
2019-06-04T10:49:15.303Z,22.77
2019-06-04T10:50:15.430Z,23.07
2019-06-04T10:52:09.112Z,23.08
2019-06-04T10:53:09.661Z,22.97
2019-06-04T10:55:05.047Z,22.99
2019-06-04T10:56:04.808Z,22.88
2019-06-04T10:58:00.354Z,23.57
2019-06-04T10:59:00.372Z,22.96
2019-06-04T11:00:56.853Z,23.07
2019-06-04T11:01:56.165Z,22.69
2019-06-04T11:03:51.192Z,22.69
2019-06-04T11:04:50.035Z,22.30
2019-06-04T11:06:43.808Z,22.52
2019-06-04T11:07:43.689Z,22.02
2019-06-04T11:09:37.527Z,22.88
2019-06-04T11:10:37.323Z,23.26
2019-06-04T11:12:32.686Z,24.51
2019-06-04T11:13:32.148Z,24.88
2019-06-04T11:15:26.743Z,24.49
2019-06-04T11:16:26.604Z,24.41
2019-06-04T11:18:20.280Z,24.63
2019-06-04T11:19:20.714Z,24.33
2019-06-04T11:21:14.418Z,22.96
2019-06-04T11:22:14.136Z,22.97
2019-06-04T11:24:10.879Z,22.10
2019-06-04T11:25:10.669Z,22.11
2019-06-04T11:26:10.927Z,21.12
2019-06-04T11:27:10.692Z,21.83
2019-06-04T11:28:11.050Z,21.14
2019-06-04T11:29:11.799Z,21.36
2019-06-04T11:30:10.850Z,21.44
2019-06-04T11:31:10.765Z,21.34
2019-06-04T11:32:11.010Z,21.44
2019-06-04T11:33:10.980Z,21.36
2019-06-04T11:34:25.803Z,21.06
2019-06-04T11:35:11.211Z,20.59
2019-06-04T11:36:11.022Z,19.79
2019-06-04T11:37:10.878Z,20.00
2019-06-04T11:38:10.849Z,20.00
2019-06-04T11:39:18.532Z,19.49
2019-06-04T11:40:10.952Z,20.09
2019-06-04T11:41:10.916Z,19.59
2019-06-04T11:42:11.023Z,19.88
2019-06-04T11:43:12.433Z,19.78
2019-06-04T11:44:10.974Z,19.78
2019-06-04T11:45:23.601Z,20.57
2019-06-04T11:46:11.171Z,20.47
2019-06-04T11:47:10.981Z,21.15
2019-06-04T11:48:11.116Z,20.87
2019-06-04T11:49:11.106Z,21.06
2019-06-04T11:50:11.047Z,20.86
2019-06-04T11:51:11.052Z,20.97
2019-06-04T11:52:11.086Z,21.06
2019-06-04T11:53:11.135Z,20.95
2019-06-04T11:54:11.120Z,21.22
2019-06-04T11:55:11.133Z,22.10
2019-06-04T11:56:11.225Z,22.39
2019-06-04T11:57:12.265Z,22.39
2019-06-04T11:58:11.198Z,22.88
2019-06-04T11:59:11.191Z,23.15
2019-06-04T12:00:11.414Z,23.14
2019-06-04T12:01:17.925Z,23.33
2019-06-04T12:02:11.285Z,24.60
2019-06-04T12:03:12.117Z,24.21
2019-06-04T12:04:11.257Z,24.42
2019-06-04T12:05:11.279Z,24.41
2019-06-04T12:06:11.302Z,24.80
2019-06-04T12:07:12.207Z,24.53
2019-06-04T12:08:12.712Z,23.15
2019-06-04T12:09:29.658Z,23.46
2019-06-04T12:10:19.456Z,23.05
2019-06-04T12:12:41.341Z,23.25
2019-06-04T12:13:06.705Z,23.83
2019-06-04T12:15:02.021Z,24.40
2019-06-04T12:16:02.123Z,25.29
2019-06-04T12:17:56.100Z,24.13
2019-06-04T12:18:56.021Z,23.45
2019-06-04T12:20:49.749Z,22.97
2019-06-04T12:21:49.644Z,21.91
2019-06-04T12:23:44.369Z,21.33
2019-06-04T12:24:44.390Z,21.06
2019-06-04T12:26:39.241Z,20.47
2019-06-04T12:27:38.756Z,20.26
2019-06-04T12:29:33.526Z,22.10
2019-06-04T12:30:33.371Z,22.30
2019-06-04T12:32:28.167Z,23.18
2019-06-04T12:33:27.976Z,23.16
2019-06-04T12:35:22.559Z,23.16
2019-06-04T12:36:22.565Z,23.18
2019-06-04T12:38:17.768Z,24.23
2019-06-04T12:39:17.253Z,24.22
2019-06-04T12:41:15.685Z,24.31
2019-06-04T12:42:15.735Z,24.90
2019-06-04T12:43:17.265Z,24.51
2019-06-04T12:44:15.787Z,24.60
2019-06-04T12:45:19.273Z,23.33
2019-06-04T12:46:17.198Z,23.44
2019-06-04T12:47:15.737Z,23.14
2019-06-04T12:48:16.806Z,22.85
2019-06-04T12:49:15.731Z,21.87
2019-06-04T12:50:15.750Z,21.89
2019-06-04T12:51:15.745Z,22.10
2019-06-04T12:52:17.750Z,21.22
2019-06-04T12:53:15.732Z,21.33
2019-06-04T12:54:19.022Z,20.95
2019-06-04T12:55:15.813Z,20.84
2019-06-04T12:56:17.792Z,20.75
2019-06-04T12:57:15.831Z,20.95
2019-06-04T12:58:15.841Z,21.03
2019-06-04T12:59:15.857Z,21.31
2019-06-04T13:00:17.686Z,21.81
2019-06-04T13:01:15.951Z,21.81
2019-06-04T13:02:25.649Z,22.00
2019-06-04T13:03:16.264Z,23.07
2019-06-04T13:04:16.569Z,23.34
2019-06-04T13:05:16.130Z,23.93
2019-06-04T13:06:18.736Z,23.93
2019-06-04T13:07:17.747Z,24.22
2019-06-04T13:08:26.562Z,23.93
2019-06-04T13:09:16.067Z,22.96
2019-06-04T13:10:28.281Z,23.36
2019-06-04T13:11:17.848Z,23.26
2019-06-04T13:12:16.058Z,23.24
2019-06-04T13:13:16.117Z,23.34
2019-06-04T13:14:17.690Z,24.11
2019-06-04T13:15:16.103Z,24.41
2019-06-04T13:16:17.690Z,23.93